sensor_id;sensor_type;location;lat;lon;timestamp;P1;durP1;ratioP1;P2;durP2;ratioP2
16775;SDS011;8505;49.456;8.164;2022-08-01T00:00:49;3.80;;;2.10;;
16775;SDS011;8505;49.456;8.164;2022-08-01T00:03:16;3.47;;;2.10;;
16775;SDS011;8505;49.456;8.164;2022-08-01T00:05:44;2.20;;;1.95;;
16775;SDS011;8505;49.456;8.164;2022-08-01T00:08:12;4.28;;;2.15;;
16775;SDS011;8505;49.456;8.164;2022-08-01T00:10:40;3.05;;;2.30;;
16775;SDS011;8505;49.456;8.164;2022-08-01T00:13:08;3.53;;;2.40;;
16775;SDS011;8505;49.456;8.164;2022-08-01T00:15:36;8.25;;;2.33;;
16775;SDS011;8505;49.456;8.164;2022-08-01T00:18:05;3.53;;;2.33;;
16775;SDS011;8505;49.456;8.164;2022-08-01T00:20:32;2.72;;;2.03;;
16775;SDS011;8505;49.456;8.164;2022-08-01T00:23:01;3.95;;;2.40;;
16775;SDS011;8505;49.456;8.164;2022-08-01T00:25:29;6.43;;;2.40;;
16775;SDS011;8505;49.456;8.164;2022-08-01T00:27:59;3.35;;;2.05;;
16775;SDS011;8505;49.456;8.164;2022-08-01T00:30:29;5.45;;;2.30;;
16775;SDS011;8505;49.456;8.164;2022-08-01T00:32:57;4.80;;;2.03;;
16775;SDS011;8505;49.456;8.164;2022-08-01T00:35:26;3.28;;;2.25;;
16775;SDS011;8505;49.456;8.164;2022-08-01T00:37:54;4.35;;;1.85;;
16775;SDS011;8505;49.456;8.164;2022-08-01T00:40:22;3.47;;;1.73;;
16775;SDS011;8505;49.456;8.164;2022-08-01T00:42:50;4.00;;;1.90;;
16775;SDS011;8505;49.456;8.164;2022-08-01T00:45:17;2.15;;;1.75;;
16775;SDS011;8505;49.456;8.164;2022-08-01T00:47:45;4.00;;;2.10;;
16775;SDS011;8505;49.456;8.164;2022-08-01T00:50:20;2.20;;;2.00;;
16775;SDS011;8505;49.456;8.164;2022-08-01T00:52:51;4.78;;;1.80;;
16775;SDS011;8505;49.456;8.164;2022-08-01T00:55:19;3.25;;;2.10;;
16775;SDS011;8505;49.456;8.164;2022-08-01T00:57:47;3.28;;;2.10;;
16775;SDS011;8505;49.456;8.164;2022-08-01T01:00:30;2.63;;;1.88;;
16775;SDS011;8505;49.456;8.164;2022-08-01T01:03:18;3.50;;;2.10;;
16775;SDS011;8505;49.456;8.164;2022-08-01T01:06:05;3.10;;;2.03;;
16775;SDS011;8505;49.456;8.164;2022-08-01T01:08:43;2.83;;;1.70;;
16775;SDS011;8505;49.456;8.164;2022-08-01T01:11:18;2.65;;;1.80;;
16775;SDS011;8505;49.456;8.164;2022-08-01T01:13:54;2.72;;;1.80;;
16775;SDS011;8505;49.456;8.164;2022-08-01T01:16:26;1.75;;;1.60;;
16775;SDS011;8505;49.456;8.164;2022-08-01T01:19:00;4.03;;;1.80;;
16775;SDS011;8505;49.456;8.164;2022-08-01T01:21:37;4.07;;;1.80;;
16775;SDS011;8505;49.456;8.164;2022-08-01T01:24:18;2.60;;;1.85;;
16775;SDS011;8505;49.456;8.164;2022-08-01T01:26:57;4.45;;;1.90;;
16775;SDS011;8505;49.456;8.164;2022-08-01T01:29:34;3.53;;;1.90;;
16775;SDS011;8505;49.456;8.164;2022-08-01T01:32:28;2.45;;;1.70;;
16775;SDS011;8505;49.456;8.164;2022-08-01T01:35:00;2.22;;;1.65;;
16775;SDS011;8505;49.456;8.164;2022-08-01T01:37:32;1.35;;;1.23;;
16775;SDS011;8505;49.456;8.164;2022-08-01T01:40:01;3.60;;;1.80;;
16775;SDS011;8505;49.456;8.164;2022-08-01T01:42:31;2.60;;;1.67;;
16775;SDS011;8505;49.456;8.164;2022-08-01T01:45:01;3.78;;;1.60;;
16775;SDS011;8505;49.456;8.164;2022-08-01T01:47:31;2.20;;;1.40;;
16775;SDS011;8505;49.456;8.164;2022-08-01T01:50:00;2.50;;;1.50;;
16775;SDS011;8505;49.456;8.164;2022-08-01T01:52:32;2.25;;;1.70;;
16775;SDS011;8505;49.456;8.164;2022-08-01T01:55:04;6.72;;;1.88;;
16775;SDS011;8505;49.456;8.164;2022-08-01T01:57:35;2.85;;;1.80;;
16775;SDS011;8505;49.456;8.164;2022-08-01T02:00:09;1.73;;;1.63;;
16775;SDS011;8505;49.456;8.164;2022-08-01T02:02:38;1.77;;;1.60;;
16775;SDS011;8505;49.456;8.164;2022-08-01T02:05:09;2.22;;;1.35;;
16775;SDS011;8505;49.456;8.164;2022-08-01T02:07:38;1.98;;;1.60;;
16775;SDS011;8505;49.456;8.164;2022-08-01T02:10:07;2.58;;;1.70;;
16775;SDS011;8505;49.456;8.164;2022-08-01T02:12:37;3.15;;;1.95;;
16775;SDS011;8505;49.456;8.164;2022-08-01T02:15:10;2.95;;;1.65;;
16775;SDS011;8505;49.456;8.164;2022-08-01T02:17:39;3.10;;;1.67;;
16775;SDS011;8505;49.456;8.164;2022-08-01T02:20:11;2.22;;;1.63;;
16775;SDS011;8505;49.456;8.164;2022-08-01T02:22:40;2.38;;;1.58;;
16775;SDS011;8505;49.456;8.164;2022-08-01T02:25:14;3.67;;;1.60;;
16775;SDS011;8505;49.456;8.164;2022-08-01T02:27:49;4.40;;;1.90;;
16775;SDS011;8505;49.456;8.164;2022-08-01T02:30:23;3.08;;;1.70;;
16775;SDS011;8505;49.456;8.164;2022-08-01T02:32:53;2.55;;;1.60;;
16775;SDS011;8505;49.456;8.164;2022-08-01T02:35:28;3.60;;;1.60;;
16775;SDS011;8505;49.456;8.164;2022-08-01T02:37:59;3.28;;;1.80;;
16775;SDS011;8505;49.456;8.164;2022-08-01T02:40:29;2.58;;;1.85;;
16775;SDS011;8505;49.456;8.164;2022-08-01T02:43:00;2.53;;;1.98;;
16775;SDS011;8505;49.456;8.164;2022-08-01T02:45:31;2.83;;;2.03;;
16775;SDS011;8505;49.456;8.164;2022-08-01T02:48:03;2.78;;;2.08;;
16775;SDS011;8505;49.456;8.164;2022-08-01T02:50:36;3.83;;;2.25;;
16775;SDS011;8505;49.456;8.164;2022-08-01T02:53:05;5.70;;;2.10;;
16775;SDS011;8505;49.456;8.164;2022-08-01T02:55:36;3.63;;;2.35;;
16775;SDS011;8505;49.456;8.164;2022-08-01T02:58:06;4.85;;;2.30;;
16775;SDS011;8505;49.456;8.164;2022-08-01T03:00:39;4.45;;;2.75;;
16775;SDS011;8505;49.456;8.164;2022-08-01T03:03:08;3.65;;;2.55;;
16775;SDS011;8505;49.456;8.164;2022-08-01T03:05:37;3.72;;;2.47;;
16775;SDS011;8505;49.456;8.164;2022-08-01T03:08:06;3.80;;;2.50;;
16775;SDS011;8505;49.456;8.164;2022-08-01T03:10:40;4.68;;;2.92;;
16775;SDS011;8505;49.456;8.164;2022-08-01T03:13:11;5.80;;;2.45;;
16775;SDS011;8505;49.456;8.164;2022-08-01T03:15:43;5.90;;;2.92;;
16775;SDS011;8505;49.456;8.164;2022-08-01T03:18:11;3.40;;;2.50;;
16775;SDS011;8505;49.456;8.164;2022-08-01T03:20:41;3.58;;;2.50;;
16775;SDS011;8505;49.456;8.164;2022-08-01T03:23:11;5.15;;;2.67;;
16775;SDS011;8505;49.456;8.164;2022-08-01T03:25:40;3.45;;;2.50;;
16775;SDS011;8505;49.456;8.164;2022-08-01T03:28:11;3.28;;;2.50;;
16775;SDS011;8505;49.456;8.164;2022-08-01T03:30:42;2.90;;;2.58;;
16775;SDS011;8505;49.456;8.164;2022-08-01T03:33:11;2.92;;;2.58;;
16775;SDS011;8505;49.456;8.164;2022-08-01T03:35:42;3.83;;;2.75;;
16775;SDS011;8505;49.456;8.164;2022-08-01T03:38:16;4.00;;;2.97;;
16775;SDS011;8505;49.456;8.164;2022-08-01T03:40:49;6.97;;;2.88;;
16775;SDS011;8505;49.456;8.164;2022-08-01T03:43:22;4.25;;;2.60;;
16775;SDS011;8505;49.456;8.164;2022-08-01T03:45:56;5.78;;;3.25;;
16775;SDS011;8505;49.456;8.164;2022-08-01T03:48:29;5.30;;;2.65;;
16775;SDS011;8505;49.456;8.164;2022-08-01T03:51:00;4.85;;;3.28;;
16775;SDS011;8505;49.456;8.164;2022-08-01T03:53:30;3.78;;;2.80;;
16775;SDS011;8505;49.456;8.164;2022-08-01T03:56:00;4.07;;;2.67;;
16775;SDS011;8505;49.456;8.164;2022-08-01T03:58:35;3.75;;;2.95;;
16775;SDS011;8505;49.456;8.164;2022-08-01T04:01:07;3.33;;;2.95;;
16775;SDS011;8505;49.456;8.164;2022-08-01T04:03:41;5.03;;;3.00;;
16775;SDS011;8505;49.456;8.164;2022-08-01T04:06:09;5.75;;;2.83;;
16775;SDS011;8505;49.456;8.164;2022-08-01T04:08:39;4.20;;;2.88;;
16775;SDS011;8505;49.456;8.164;2022-08-01T04:11:08;3.45;;;2.40;;
16775;SDS011;8505;49.456;8.164;2022-08-01T04:13:36;4.88;;;3.00;;
16775;SDS011;8505;49.456;8.164;2022-08-01T04:16:04;6.60;;;2.55;;
16775;SDS011;8505;49.456;8.164;2022-08-01T04:18:34;3.53;;;2.75;;
16775;SDS011;8505;49.456;8.164;2022-08-01T04:21:01;3.95;;;2.83;;
16775;SDS011;8505;49.456;8.164;2022-08-01T04:23:29;3.78;;;2.72;;
16775;SDS011;8505;49.456;8.164;2022-08-01T04:25:59;6.38;;;3.10;;
16775;SDS011;8505;49.456;8.164;2022-08-01T04:28:30;4.95;;;2.50;;
16775;SDS011;8505;49.456;8.164;2022-08-01T04:31:02;5.25;;;2.78;;
16775;SDS011;8505;49.456;8.164;2022-08-01T04:33:36;5.00;;;2.80;;
16775;SDS011;8505;49.456;8.164;2022-08-01T04:36:07;5.82;;;3.03;;
16775;SDS011;8505;49.456;8.164;2022-08-01T04:38:38;6.57;;;2.60;;
16775;SDS011;8505;49.456;8.164;2022-08-01T04:41:07;4.90;;;2.88;;
16775;SDS011;8505;49.456;8.164;2022-08-01T04:43:38;6.53;;;2.75;;
16775;SDS011;8505;49.456;8.164;2022-08-01T04:46:09;4.95;;;2.70;;
16775;SDS011;8505;49.456;8.164;2022-08-01T04:48:39;4.72;;;2.17;;
16775;SDS011;8505;49.456;8.164;2022-08-01T04:51:11;3.70;;;2.10;;
16775;SDS011;8505;49.456;8.164;2022-08-01T04:53:41;6.13;;;2.72;;
16775;SDS011;8505;49.456;8.164;2022-08-01T04:56:09;3.10;;;2.50;;
16775;SDS011;8505;49.456;8.164;2022-08-01T04:58:39;4.30;;;2.42;;
16775;SDS011;8505;49.456;8.164;2022-08-01T05:01:08;6.70;;;4.10;;
16775;SDS011;8505;49.456;8.164;2022-08-01T05:03:36;4.00;;;2.38;;
16775;SDS011;8505;49.456;8.164;2022-08-01T05:06:06;3.42;;;2.38;;
16775;SDS011;8505;49.456;8.164;2022-08-01T05:08:33;4.18;;;2.50;;
16775;SDS011;8505;49.456;8.164;2022-08-01T05:11:02;3.75;;;2.17;;
16775;SDS011;8505;49.456;8.164;2022-08-01T05:13:30;4.38;;;2.42;;
16775;SDS011;8505;49.456;8.164;2022-08-01T05:15:58;3.67;;;2.33;;
16775;SDS011;8505;49.456;8.164;2022-08-01T05:18:26;6.55;;;2.22;;
16775;SDS011;8505;49.456;8.164;2022-08-01T05:20:54;2.65;;;2.38;;
16775;SDS011;8505;49.456;8.164;2022-08-01T05:23:23;5.70;;;2.40;;
16775;SDS011;8505;49.456;8.164;2022-08-01T05:26:08;4.20;;;2.35;;
16775;SDS011;8505;49.456;8.164;2022-08-01T05:28:40;4.28;;;2.20;;
16775;SDS011;8505;49.456;8.164;2022-08-01T05:31:08;3.63;;;2.50;;
16775;SDS011;8505;49.456;8.164;2022-08-01T05:33:35;3.75;;;2.20;;
16775;SDS011;8505;49.456;8.164;2022-08-01T05:36:03;5.15;;;2.30;;
16775;SDS011;8505;49.456;8.164;2022-08-01T05:38:33;2.50;;;2.20;;
16775;SDS011;8505;49.456;8.164;2022-08-01T05:41:01;3.42;;;2.20;;
16775;SDS011;8505;49.456;8.164;2022-08-01T05:43:28;3.13;;;1.85;;
16775;SDS011;8505;49.456;8.164;2022-08-01T05:45:56;3.13;;;1.80;;
16775;SDS011;8505;49.456;8.164;2022-08-01T05:48:25;2.92;;;1.98;;
16775;SDS011;8505;49.456;8.164;2022-08-01T05:50:52;1.85;;;1.63;;
16775;SDS011;8505;49.456;8.164;2022-08-01T05:53:24;1.88;;;1.60;;
16775;SDS011;8505;49.456;8.164;2022-08-01T05:55:53;2.75;;;1.70;;
16775;SDS011;8505;49.456;8.164;2022-08-01T05:58:21;2.17;;;1.80;;
16775;SDS011;8505;49.456;8.164;2022-08-01T06:00:49;2.15;;;1.58;;
16775;SDS011;8505;49.456;8.164;2022-08-01T06:03:18;2.55;;;1.40;;
16775;SDS011;8505;49.456;8.164;2022-08-01T06:05:46;1.90;;;1.50;;
16775;SDS011;8505;49.456;8.164;2022-08-01T06:08:13;3.85;;;1.70;;
16775;SDS011;8505;49.456;8.164;2022-08-01T06:10:41;2.97;;;1.30;;
16775;SDS011;8505;49.456;8.164;2022-08-01T06:13:10;1.52;;;1.20;;
16775;SDS011;8505;49.456;8.164;2022-08-01T06:15:38;1.80;;;1.20;;
16775;SDS011;8505;49.456;8.164;2022-08-01T06:18:06;1.85;;;1.00;;
16775;SDS011;8505;49.456;8.164;2022-08-01T06:20:34;1.27;;;0.90;;
16775;SDS011;8505;49.456;8.164;2022-08-01T06:23:01;4.10;;;1.15;;
16775;SDS011;8505;49.456;8.164;2022-08-01T06:25:51;4.28;;;1.05;;
16775;SDS011;8505;49.456;8.164;2022-08-01T06:28:21;0.90;;;0.80;;
16775;SDS011;8505;49.456;8.164;2022-08-01T06:30:49;2.55;;;1.00;;
16775;SDS011;8505;49.456;8.164;2022-08-01T06:33:17;1.90;;;0.98;;
16775;SDS011;8505;49.456;8.164;2022-08-01T06:35:44;2.45;;;0.85;;
16775;SDS011;8505;49.456;8.164;2022-08-01T06:38:13;4.95;;;1.23;;
16775;SDS011;8505;49.456;8.164;2022-08-01T06:40:41;4.22;;;1.05;;
16775;SDS011;8505;49.456;8.164;2022-08-01T06:43:09;3.35;;;0.90;;
16775;SDS011;8505;49.456;8.164;2022-08-01T06:45:39;3.40;;;0.88;;
16775;SDS011;8505;49.456;8.164;2022-08-01T06:48:07;1.55;;;0.90;;
16775;SDS011;8505;49.456;8.164;2022-08-01T06:50:35;6.30;;;1.20;;
16775;SDS011;8505;49.456;8.164;2022-08-01T06:53:03;1.30;;;0.90;;
16775;SDS011;8505;49.456;8.164;2022-08-01T06:55:31;5.40;;;1.10;;
16775;SDS011;8505;49.456;8.164;2022-08-01T06:57:59;4.28;;;1.00;;
16775;SDS011;8505;49.456;8.164;2022-08-01T07:00:26;1.45;;;0.93;;
16775;SDS011;8505;49.456;8.164;2022-08-01T07:02:56;1.10;;;0.60;;
16775;SDS011;8505;49.456;8.164;2022-08-01T07:05:26;2.05;;;0.85;;
16775;SDS011;8505;49.456;8.164;2022-08-01T07:07:54;1.35;;;0.80;;
16775;SDS011;8505;49.456;8.164;2022-08-01T07:10:22;4.25;;;0.90;;
16775;SDS011;8505;49.456;8.164;2022-08-01T07:12:50;4.13;;;0.90;;
16775;SDS011;8505;49.456;8.164;2022-08-01T07:15:17;1.33;;;0.70;;
16775;SDS011;8505;49.456;8.164;2022-08-01T07:17:48;0.90;;;0.70;;
16775;SDS011;8505;49.456;8.164;2022-08-01T07:20:17;3.40;;;0.98;;
16775;SDS011;8505;49.456;8.164;2022-08-01T07:22:45;1.02;;;0.80;;
16775;SDS011;8505;49.456;8.164;2022-08-01T07:25:13;3.63;;;0.85;;
16775;SDS011;8505;49.456;8.164;2022-08-01T07:27:41;1.25;;;0.73;;
16775;SDS011;8505;49.456;8.164;2022-08-01T07:30:10;1.95;;;0.80;;
16775;SDS011;8505;49.456;8.164;2022-08-01T07:32:38;2.60;;;0.70;;
16775;SDS011;8505;49.456;8.164;2022-08-01T07:35:06;1.90;;;0.70;;
16775;SDS011;8505;49.456;8.164;2022-08-01T07:37:35;3.83;;;0.90;;
16775;SDS011;8505;49.456;8.164;2022-08-01T07:40:14;2.42;;;0.70;;
16775;SDS011;8505;49.456;8.164;2022-08-01T07:42:43;1.38;;;0.77;;
16775;SDS011;8505;49.456;8.164;2022-08-01T07:45:11;1.80;;;0.77;;
16775;SDS011;8505;49.456;8.164;2022-08-01T07:47:40;3.75;;;0.90;;
16775;SDS011;8505;49.456;8.164;2022-08-01T07:50:08;1.27;;;0.60;;
16775;SDS011;8505;49.456;8.164;2022-08-01T07:52:38;1.73;;;0.90;;
16775;SDS011;8505;49.456;8.164;2022-08-01T07:55:06;1.73;;;0.70;;
16775;SDS011;8505;49.456;8.164;2022-08-01T07:57:35;2.80;;;0.90;;
16775;SDS011;8505;49.456;8.164;2022-08-01T08:00:05;1.27;;;0.85;;
16775;SDS011;8505;49.456;8.164;2022-08-01T08:02:35;0.88;;;0.80;;
16775;SDS011;8505;49.456;8.164;2022-08-01T08:05:03;1.55;;;0.77;;
16775;SDS011;8505;49.456;8.164;2022-08-01T08:07:33;1.42;;;0.85;;
16775;SDS011;8505;49.456;8.164;2022-08-01T08:10:03;4.47;;;0.82;;
16775;SDS011;8505;49.456;8.164;2022-08-01T08:12:32;1.45;;;0.68;;
16775;SDS011;8505;49.456;8.164;2022-08-01T08:15:00;0.93;;;0.70;;
16775;SDS011;8505;49.456;8.164;2022-08-01T08:17:31;1.20;;;1.00;;
16775;SDS011;8505;49.456;8.164;2022-08-01T08:20:01;1.27;;;0.80;;
16775;SDS011;8505;49.456;8.164;2022-08-01T08:22:34;1.30;;;0.68;;
16775;SDS011;8505;49.456;8.164;2022-08-01T08:25:04;2.47;;;0.77;;
16775;SDS011;8505;49.456;8.164;2022-08-01T08:27:33;1.92;;;0.77;;
16775;SDS011;8505;49.456;8.164;2022-08-01T08:30:03;3.38;;;0.90;;
16775;SDS011;8505;49.456;8.164;2022-08-01T08:32:33;3.60;;;0.90;;
16775;SDS011;8505;49.456;8.164;2022-08-01T08:35:01;1.30;;;0.70;;
16775;SDS011;8505;49.456;8.164;2022-08-01T08:37:32;1.88;;;0.80;;
16775;SDS011;8505;49.456;8.164;2022-08-01T08:40:10;1.98;;;1.00;;
16775;SDS011;8505;49.456;8.164;2022-08-01T08:42:39;1.77;;;1.00;;
16775;SDS011;8505;49.456;8.164;2022-08-01T08:45:08;1.00;;;0.60;;
16775;SDS011;8505;49.456;8.164;2022-08-01T08:47:37;2.30;;;0.70;;
16775;SDS011;8505;49.456;8.164;2022-08-01T08:50:06;1.33;;;0.70;;
16775;SDS011;8505;49.456;8.164;2022-08-01T08:52:35;1.83;;;0.90;;
16775;SDS011;8505;49.456;8.164;2022-08-01T08:55:06;1.10;;;0.80;;
16775;SDS011;8505;49.456;8.164;2022-08-01T08:57:37;1.10;;;0.85;;
16775;SDS011;8505;49.456;8.164;2022-08-01T09:00:08;1.40;;;0.80;;
16775;SDS011;8505;49.456;8.164;2022-08-01T09:02:40;1.27;;;0.60;;
16775;SDS011;8505;49.456;8.164;2022-08-01T09:05:08;1.27;;;0.85;;
16775;SDS011;8505;49.456;8.164;2022-08-01T09:07:43;5.18;;;1.00;;
16775;SDS011;8505;49.456;8.164;2022-08-01T09:10:10;1.20;;;0.82;;
16775;SDS011;8505;49.456;8.164;2022-08-01T09:12:40;0.93;;;0.70;;
16775;SDS011;8505;49.456;8.164;2022-08-01T09:15:40;2.13;;;0.77;;
16775;SDS011;8505;49.456;8.164;2022-08-01T09:18:26;1.38;;;0.93;;
16775;SDS011;8505;49.456;8.164;2022-08-01T09:21:12;3.08;;;1.00;;
16775;SDS011;8505;49.456;8.164;2022-08-01T09:23:43;1.40;;;0.98;;
16775;SDS011;8505;49.456;8.164;2022-08-01T09:26:20;2.45;;;0.90;;
16775;SDS011;8505;49.456;8.164;2022-08-01T09:28:57;1.75;;;0.93;;
16775;SDS011;8505;49.456;8.164;2022-08-01T09:31:27;3.17;;;0.85;;
16775;SDS011;8505;49.456;8.164;2022-08-01T09:34:04;2.33;;;0.98;;
16775;SDS011;8505;49.456;8.164;2022-08-01T09:36:43;2.60;;;1.30;;
16775;SDS011;8505;49.456;8.164;2022-08-01T09:39:15;1.33;;;0.98;;
16775;SDS011;8505;49.456;8.164;2022-08-01T09:41:42;3.55;;;1.00;;
16775;SDS011;8505;49.456;8.164;2022-08-01T09:44:12;2.25;;;0.70;;
16775;SDS011;8505;49.456;8.164;2022-08-01T09:46:51;5.65;;;1.00;;
16775;SDS011;8505;49.456;8.164;2022-08-01T09:49:29;3.17;;;1.13;;
16775;SDS011;8505;49.456;8.164;2022-08-01T09:52:17;2.42;;;1.00;;
16775;SDS011;8505;49.456;8.164;2022-08-01T09:54:53;4.13;;;1.00;;
16775;SDS011;8505;49.456;8.164;2022-08-01T09:57:23;1.55;;;0.90;;
16775;SDS011;8505;49.456;8.164;2022-08-01T09:59:54;2.25;;;1.00;;
16775;SDS011;8505;49.456;8.164;2022-08-01T10:02:27;4.10;;;1.10;;
16775;SDS011;8505;49.456;8.164;2022-08-01T10:04:57;1.00;;;0.90;;
16775;SDS011;8505;49.456;8.164;2022-08-01T10:07:33;3.78;;;0.95;;
16775;SDS011;8505;49.456;8.164;2022-08-01T10:10:09;1.83;;;1.10;;
16775;SDS011;8505;49.456;8.164;2022-08-01T10:12:39;1.73;;;1.08;;
16775;SDS011;8505;49.456;8.164;2022-08-01T10:15:12;2.47;;;0.90;;
16775;SDS011;8505;49.456;8.164;2022-08-01T10:17:45;4.03;;;1.00;;
16775;SDS011;8505;49.456;8.164;2022-08-01T10:20:23;1.15;;;0.90;;
16775;SDS011;8505;49.456;8.164;2022-08-01T10:22:58;3.17;;;1.10;;
16775;SDS011;8505;49.456;8.164;2022-08-01T10:25:33;1.35;;;1.00;;
16775;SDS011;8505;49.456;8.164;2022-08-01T10:28:10;3.38;;;1.20;;
16775;SDS011;8505;49.456;8.164;2022-08-01T10:30:50;2.53;;;1.00;;
16775;SDS011;8505;49.456;8.164;2022-08-01T10:33:21;2.42;;;1.15;;
16775;SDS011;8505;49.456;8.164;2022-08-01T10:36:09;3.63;;;0.90;;
16775;SDS011;8505;49.456;8.164;2022-08-01T10:38:37;3.25;;;1.00;;
16775;SDS011;8505;49.456;8.164;2022-08-01T10:41:07;2.50;;;0.90;;
16775;SDS011;8505;49.456;8.164;2022-08-01T10:43:35;3.80;;;0.90;;
16775;SDS011;8505;49.456;8.164;2022-08-01T10:46:05;1.52;;;0.90;;
16775;SDS011;8505;49.456;8.164;2022-08-01T10:48:38;1.52;;;0.90;;
16775;SDS011;8505;49.456;8.164;2022-08-01T10:51:10;3.42;;;1.00;;
16775;SDS011;8505;49.456;8.164;2022-08-01T10:53:47;1.83;;;0.90;;
16775;SDS011;8505;49.456;8.164;2022-08-01T10:56:20;2.90;;;0.90;;
16775;SDS011;8505;49.456;8.164;2022-08-01T10:59:00;1.42;;;0.93;;
16775;SDS011;8505;49.456;8.164;2022-08-01T11:01:35;3.35;;;1.08;;
16775;SDS011;8505;49.456;8.164;2022-08-01T11:04:05;2.55;;;0.95;;
16775;SDS011;8505;49.456;8.164;2022-08-01T11:06:43;3.92;;;1.05;;
16775;SDS011;8505;49.456;8.164;2022-08-01T11:09:23;2.05;;;1.13;;
16775;SDS011;8505;49.456;8.164;2022-08-01T11:12:03;1.48;;;1.00;;
16775;SDS011;8505;49.456;8.164;2022-08-01T11:17:57;1.42;;;1.00;;
16775;SDS011;8505;49.456;8.164;2022-08-01T11:20:27;5.07;;;1.10;;
16775;SDS011;8505;49.456;8.164;2022-08-01T11:26:06;1.25;;;0.95;;
16775;SDS011;8505;49.456;8.164;2022-08-01T11:28:39;1.50;;;1.00;;
16775;SDS011;8505;49.456;8.164;2022-08-01T11:31:28;3.78;;;1.10;;
16775;SDS011;8505;49.456;8.164;2022-08-01T11:34:04;2.25;;;1.00;;
16775;SDS011;8505;49.456;8.164;2022-08-01T11:36:33;1.77;;;1.10;;
16775;SDS011;8505;49.456;8.164;2022-08-01T11:39:21;3.15;;;1.10;;
16775;SDS011;8505;49.456;8.164;2022-08-01T11:41:49;3.90;;;1.00;;
16775;SDS011;8505;49.456;8.164;2022-08-01T11:44:19;1.83;;;0.85;;
16775;SDS011;8505;49.456;8.164;2022-08-01T11:46:56;3.85;;;0.90;;
16775;SDS011;8505;49.456;8.164;2022-08-01T11:52:28;4.10;;;0.93;;
16775;SDS011;8505;49.456;8.164;2022-08-01T11:55:04;3.63;;;1.15;;
16775;SDS011;8505;49.456;8.164;2022-08-01T11:57:36;3.90;;;1.02;;
16775;SDS011;8505;49.456;8.164;2022-08-01T12:00:10;1.50;;;0.90;;
16775;SDS011;8505;49.456;8.164;2022-08-01T12:02:41;3.33;;;1.25;;
16775;SDS011;8505;49.456;8.164;2022-08-01T12:05:13;3.67;;;1.08;;
16775;SDS011;8505;49.456;8.164;2022-08-01T12:07:43;3.50;;;1.15;;
16775;SDS011;8505;49.456;8.164;2022-08-01T12:10:13;3.08;;;0.80;;
16775;SDS011;8505;49.456;8.164;2022-08-01T12:12:43;2.08;;;1.10;;
16775;SDS011;8505;49.456;8.164;2022-08-01T12:15:12;0.95;;;0.80;;
16775;SDS011;8505;49.456;8.164;2022-08-01T12:17:41;1.45;;;0.95;;
16775;SDS011;8505;49.456;8.164;2022-08-01T12:20:26;4.35;;;1.05;;
16775;SDS011;8505;49.456;8.164;2022-08-01T12:22:57;1.75;;;0.90;;
16775;SDS011;8505;49.456;8.164;2022-08-01T12:25:26;1.92;;;1.00;;
16775;SDS011;8505;49.456;8.164;2022-08-01T12:27:54;1.50;;;0.77;;
16775;SDS011;8505;49.456;8.164;2022-08-01T12:30:26;1.65;;;0.90;;
16775;SDS011;8505;49.456;8.164;2022-08-01T12:32:57;1.98;;;0.93;;
16775;SDS011;8505;49.456;8.164;2022-08-01T12:35:27;3.35;;;1.02;;
16775;SDS011;8505;49.456;8.164;2022-08-01T12:37:56;2.10;;;0.80;;
16775;SDS011;8505;49.456;8.164;2022-08-01T12:40:26;2.45;;;1.00;;
16775;SDS011;8505;49.456;8.164;2022-08-01T12:42:55;3.25;;;0.82;;
16775;SDS011;8505;49.456;8.164;2022-08-01T12:45:25;1.30;;;0.80;;
16775;SDS011;8505;49.456;8.164;2022-08-01T12:47:54;3.00;;;0.82;;
16775;SDS011;8505;49.456;8.164;2022-08-01T12:50:24;1.20;;;0.82;;
16775;SDS011;8505;49.456;8.164;2022-08-01T12:52:55;3.60;;;0.90;;
16775;SDS011;8505;49.456;8.164;2022-08-01T12:55:24;4.05;;;0.93;;
16775;SDS011;8505;49.456;8.164;2022-08-01T12:58:03;1.15;;;0.80;;
16775;SDS011;8505;49.456;8.164;2022-08-01T13:00:39;0.90;;;0.70;;
16775;SDS011;8505;49.456;8.164;2022-08-01T13:03:11;0.80;;;0.80;;
16775;SDS011;8505;49.456;8.164;2022-08-01T13:05:42;2.33;;;0.65;;
16775;SDS011;8505;49.456;8.164;2022-08-01T13:08:11;0.80;;;0.60;;
16775;SDS011;8505;49.456;8.164;2022-08-01T13:10:41;0.60;;;0.60;;
16775;SDS011;8505;49.456;8.164;2022-08-01T13:13:09;1.15;;;0.60;;
16775;SDS011;8505;49.456;8.164;2022-08-01T13:16:02;1.67;;;0.60;;
16775;SDS011;8505;49.456;8.164;2022-08-01T13:18:31;5.68;;;1.20;;
16775;SDS011;8505;49.456;8.164;2022-08-01T13:21:08;2.35;;;0.60;;
16775;SDS011;8505;49.456;8.164;2022-08-01T13:23:37;2.70;;;0.70;;
16775;SDS011;8505;49.456;8.164;2022-08-01T13:26:37;0.85;;;0.60;;
16775;SDS011;8505;49.456;8.164;2022-08-01T13:29:05;1.35;;;0.80;;
16775;SDS011;8505;49.456;8.164;2022-08-01T13:31:35;1.10;;;0.75;;
16775;SDS011;8505;49.456;8.164;2022-08-01T13:34:03;1.50;;;0.77;;
16775;SDS011;8505;49.456;8.164;2022-08-01T13:36:33;1.40;;;0.80;;
16775;SDS011;8505;49.456;8.164;2022-08-01T13:39:01;2.55;;;0.65;;
16775;SDS011;8505;49.456;8.164;2022-08-01T13:41:47;1.35;;;0.77;;
16775;SDS011;8505;49.456;8.164;2022-08-01T13:44:15;1.67;;;0.60;;
16775;SDS011;8505;49.456;8.164;2022-08-01T13:46:43;1.30;;;0.70;;
16775;SDS011;8505;49.456;8.164;2022-08-01T13:49:16;1.02;;;0.68;;
16775;SDS011;8505;49.456;8.164;2022-08-01T13:51:46;2.20;;;0.70;;
16775;SDS011;8505;49.456;8.164;2022-08-01T13:54:16;1.35;;;0.73;;
16775;SDS011;8505;49.456;8.164;2022-08-01T13:56:44;1.48;;;0.70;;
16775;SDS011;8505;49.456;8.164;2022-08-01T13:59:12;1.05;;;0.70;;
16775;SDS011;8505;49.456;8.164;2022-08-01T14:01:40;1.58;;;0.60;;
16775;SDS011;8505;49.456;8.164;2022-08-01T14:04:08;0.90;;;0.80;;
16775;SDS011;8505;49.456;8.164;2022-08-01T14:06:36;0.60;;;0.60;;
16775;SDS011;8505;49.456;8.164;2022-08-01T14:09:08;0.60;;;0.60;;
16775;SDS011;8505;49.456;8.164;2022-08-01T14:11:49;0.85;;;0.68;;
16775;SDS011;8505;49.456;8.164;2022-08-01T14:14:16;0.80;;;0.60;;
16775;SDS011;8505;49.456;8.164;2022-08-01T14:16:46;0.95;;;0.65;;
16775;SDS011;8505;49.456;8.164;2022-08-01T14:19:14;0.95;;;0.80;;
16775;SDS011;8505;49.456;8.164;2022-08-01T14:21:44;0.80;;;0.70;;
16775;SDS011;8505;49.456;8.164;2022-08-01T14:24:13;4.05;;;0.80;;
16775;SDS011;8505;49.456;8.164;2022-08-01T14:26:41;2.03;;;0.77;;
16775;SDS011;8505;49.456;8.164;2022-08-01T14:29:09;1.85;;;0.63;;
16775;SDS011;8505;49.456;8.164;2022-08-01T14:31:36;0.88;;;0.70;;
16775;SDS011;8505;49.456;8.164;2022-08-01T14:34:04;0.98;;;0.80;;
16775;SDS011;8505;49.456;8.164;2022-08-01T14:36:32;1.15;;;0.73;;
16775;SDS011;8505;49.456;8.164;2022-08-01T14:39:04;3.45;;;0.70;;
16775;SDS011;8505;49.456;8.164;2022-08-01T14:41:38;0.80;;;0.60;;
16775;SDS011;8505;49.456;8.164;2022-08-01T14:44:07;1.67;;;1.17;;
16775;SDS011;8505;49.456;8.164;2022-08-01T14:46:35;1.58;;;0.98;;
16775;SDS011;8505;49.456;8.164;2022-08-01T14:49:22;0.63;;;0.52;;
16775;SDS011;8505;49.456;8.164;2022-08-01T14:51:50;3.15;;;0.90;;
16775;SDS011;8505;49.456;8.164;2022-08-01T14:54:17;1.23;;;0.63;;
16775;SDS011;8505;49.456;8.164;2022-08-01T14:56:55;2.58;;;0.63;;
16775;SDS011;8505;49.456;8.164;2022-08-01T14:59:23;0.70;;;0.68;;
16775;SDS011;8505;49.456;8.164;2022-08-01T15:01:51;1.15;;;0.70;;
16775;SDS011;8505;49.456;8.164;2022-08-01T15:04:19;1.17;;;0.65;;
16775;SDS011;8505;49.456;8.164;2022-08-01T15:06:47;1.88;;;0.60;;
16775;SDS011;8505;49.456;8.164;2022-08-01T15:09:15;2.33;;;0.60;;
16775;SDS011;8505;49.456;8.164;2022-08-01T15:11:43;3.08;;;0.70;;
16775;SDS011;8505;49.456;8.164;2022-08-01T15:14:16;1.00;;;0.60;;
16775;SDS011;8505;49.456;8.164;2022-08-01T15:17:02;1.65;;;0.57;;
16775;SDS011;8505;49.456;8.164;2022-08-01T15:19:29;0.80;;;0.50;;
16775;SDS011;8505;49.456;8.164;2022-08-01T15:21:57;4.50;;;1.40;;
16775;SDS011;8505;49.456;8.164;2022-08-01T15:24:26;2.05;;;1.67;;
16775;SDS011;8505;49.456;8.164;2022-08-01T15:26:54;1.50;;;1.20;;
16775;SDS011;8505;49.456;8.164;2022-08-01T15:29:23;1.67;;;0.70;;
16775;SDS011;8505;49.456;8.164;2022-08-01T15:31:51;2.42;;;0.60;;
16775;SDS011;8505;49.456;8.164;2022-08-01T15:34:19;1.52;;;0.55;;